Timeline UpdatesTrip UpdatesNews PostsPvt PostsTravel TipsAdmin PostsConv PostsFollowed PostsChat RequestsBlog PostsPNR Posts

Disclaimer
Search
 
 
Fri Aug 29, 2014 13:32:17 ISTHomeTrainsΣChainsAtlasPNRForumGalleryNewsFAQTripsMembersLoginFeedback
No Recent News for this Train
Other Trains in the News **new
Latest...
.
Sat Feb 22, 2014 (10:28PM)
⇐ Return Journey: Train# 58111

58112/Itwari-Tatanagar Jn Passenger

Feb 22 2014 (10:27PM)
Change Departure Station:
Change Arrival Station:
Post a Train Travel TipPost a Train Travel Tip **new
Post a Comment/Question/Picture/VideoPost a Comment/Question/Picture/Video
Pantry/Catering
✕ NO Pantry Car
✕ NO Catering
RSA - Rake Sharing
Rake/Coach Composition
ENG:SLR-1 UR-3 SL-4 UR-3 VP-1 SLR-1; Entry# 189608 ; Author: sunilsagitarius
Loco
WAM-4 TATA Shed; Entry# 545455
News    PNR    Forum    Time-Table    Availability    Fare Chart    Map    Arr/Dep History    Trips    Gallery    ΣChains    X/O    Timeline    
Travel Time: 12h 58m    58 halts    Distance: 492 km    Avg Speed: 37 km/hr
Type: Passenger
Zone: SER/South Eastern
Departs @ 21:30 (Avg 4m late)
Platform# ???
SMTWTFS
Itwari/ITR 
Arrives @ 10:28 +1 night (Avg 32m late)
Platform# ???
SMTWTFS
Sakti/SKT 

58 halts. 66 intermediate Stations between Itwari and Sakti

Show ALL intermediate Stations  Show Old Time-Table

#CodeStation NameX/OArrivesAvgDepartsAvgHaltPFDay#KmSpeedElevZoneAddress
1ITR»Itwari (3)»  -21:30+4--10.021306mSECRNagpur, Maharashtra
2KAVKalamna (2)  21:38+921:40+142m--12.846296mSECRNagpur, Maharashtra
3KPKamptee (3)X  21:50+1421:52+172m--110.528290mSECRMH 441001, Maharashtra
4KNHNKanhan Junction (3)  22:02+1522:04+152m--115.286288mSECRKanhan, Maharashtra
5SALSalwa (2)X  22:08+1922:10+192m--121.066289mSECRNagpur, Maharashtra
6CHCRChacher (2)O  22:16+2022:18+222m--127.563284mSECRNagpur, Maharashtra
7TARTharsa (2)  22:24+2222:26+242m--133.868292mSECRNagpur, Maharashtra
8RRLRewral (2)X  22:31+2522:33+252m--139.577293mSECRNagpur Distt, Maharashtra
9KHATKhat (2)  22:40+2522:42+262m--148.554286mSECRNagpur, Maharashtra
10BRDBhandara Road (2)X  22:53+1622:55+172m--158.454266mSECRState Highway 252, Maharashtra
11TMRTumsar Road (3)O  23:15+1923:20+175m--176.488267mSECRBhandara, Maharashtra
12MNUMundikota (2)X  23:27+2323:29+222m--186.767269mSECRBhandara, Maharashtra
13TROTirora (3)  23:38+1923:40+202m--196.768282mSECRDist Gondiya, Maharashtra
14KWNKachewani (3)  23:46+2623:48+272m--1103.672303mSECRKachewani, Maharashtra
15GJGangajhari (2)  23:55+2823:57+282m--1111.930315mSECRBhandara, Maharashtra
16GGondia Junction (7)  00:25+800:35+910m--2126.089316mSECRGondia 441601, Maharashtra
17GDMGudma (2)  00:43+2000:45+202m--2137.973323mSECRGondia, Maharashtra
18AGNAmgaon (2)  00:54+2000:56+212m--2148.880317mSECRGondia, Maharashtra
19SKSSalekasa (2)  01:07+2301:09+262m--2163.653312mSECRRajnandgaon, Chhattisgarh
20DKSDarekasa (2)  01:22+2601:24+262m--2175.166381mSECRRajnandgaon, Chhattisgarh
21BTLBortalao (2)X  01:31+2701:33+302m--2182.853409mSECRRajnandgaon, Chhattisgarh
22PJBPaniajob (2)  01:43+3101:45+332m--2191.631398mSECRRajnandgaon, Chhattisgarh
23DGGDongargarh (2)X  02:00+2702:10+2810m--2199.398353mSECRDongargarh, Chhattisgarh
24JTRJatkanhar  02:14+3202:16+312m--2205.866330mSECRRajnandgaon, Chhattisgarh
25MUAMusra  02:22+3102:24+312m--2212.569325mSECRRajnandgaon, Chhattisgarh
26RJNRaj Nandgaon (3)  02:40+2902:45+285m--2230.8100313mSECRRajnandgaon, Chhattisgarh
27MUPMurhipar  02:54+3402:56+332m--2245.816319mSECRRajnandgaon, Chhattisgarh
28DURGDurg Junction (6)X  03:55+304:00+55m--2261.345299mSECRPh: 91-788-2322059, Chhattisgarh
29BQRBhilai Nagar (2)  04:06+804:07+81m--2265.866298mSECRBhilai, Chhattisgarh
30BPHBBhilai Power House (3)  04:11+004:13+02m--2270.256312mSECRBhilai, Chhattisgarh
31BIABhilai (2)  04:18+904:20+92m--2274.952309mSECRBhilai, Chhattisgarh
32DBECDevbaloda Charoda  04:24+004:26+02m--2278.323310mSECRBhilai, Chhattisgarh
33KMIKumhari (2)X  04:46+1404:48+142m--2285.851287mSECRKumhari, Chhattisgarh
34SRWNSaraswatinagar (2)  05:00-05:01-1m--2296.010291mSECRRaipur, Chhattisgarh
35RRaipur Junction (6)X  05:15+1505:35+1520m--2298.252297mSECRRaipur, Chhattisgarh
36WRCWRS Colony PH  05:38-05:40-2m--2300.830286mSECRRaipur, Chhattisgarh
37URKUrkura  05:46+1305:48+122m--2303.973275mSECRRaipur, Chhattisgarh
38MDHMandharX  05:55+1205:56+141m--2312.464281mSECRDonde Kalan, Chhattisgarh
39SLHSiliariX  06:05+1706:06+191m--2322.056280mSECRBanjari Rd, Chhattisgarh
40BKTHBaikunthX  06:15+2306:17+212m--2330.346287mSECRBanjari Rd, Chhattisgarh
41TLDTilda (3)X  06:25+1606:27+162m--2336.480291mSECRBanjari Rd, Chhattisgarh
42HNHathbandhX  06:35+1706:37+192m--2347.184283mSECRRaipur, Chhattisgarh
43BYTBhatapara (4)X  06:48+2006:50+212m--2362.559270mSECRBanjari Road, Chhattisgarh
44NPINipania  07:05+1907:06+201m--2377.255259mSECRNational Highway 200, Chhattisgarh
45DGSDagoriX  07:15+2107:16+221m--2385.592254mSECRCollege Road, Chhattisgarh
46BYLBelha  07:21+2607:23+262m--2393.170269mSECRCollege Road, Chhattisgarh
47CHBTChakarbhathaX  07:28-07:30-2m--2399.037285mSECRBilaspur, Chhattisgarh
48DPHDadhapara (3)XO  07:35+2907:37+302m--2402.08272mSECRBilaspur, Chhattisgarh
49BSPBilaspur Junction (8)X  08:25+708:40+1115m22408.748271mSECRBilaspur, Chhattisgarh
50GTWGatoraX  08:48+1608:50+172m--2415.157268mSECRBilaspur, Chhattisgarh
51JRMGJairamnagarX  08:58+1809:00+182m--2422.867272mSECRNational Highway 200, Chhattisgarh
52KTSHKotmi Sonar HaltX  09:06-09:08-2m--2429.564266mSECRKotmisunar, Chhattisgarh
53AKTAkaltara (4)X  09:14+2009:16+202m--2435.966284mSECRDist. Janjgir Champa, Chhattisgarh
54KPNAKapan (1)XO  09:23-09:25-2m12443.648263mSECRNational Highway 200, Chhattisgarh
55NIANailaX  09:34+2009:36+212m--2450.834273mSECRJanjgir, Chhattisgarh
56CPHChampa Junction (3)X  09:55+1710:00+205m--2461.777264mSECRNational Highway 200 (07819-245767), Chhattisgarh
57SGRDSaragaon Road  10:07-10:08-1m--2470.698254mSECRNational Highway 200, Chhattisgarh
58BUABaradwarX  10:12+2810:14+302m--2477.261256mSECRJanjgir-Champa, Chhattisgarh
59JDDAJetha  10:21-10:22-1m--2484.378244mSECRNational Highway 200, Chhattisgarh
60SKT•Sakti (4)•  10:28+3210:30+352m--2492.156237mSECRJanjgir-Champa, Chhattisgarh
61JDIJharradih  10:41+3710:43+402m--2502.263247mSECRRaigarh, Chhattisgarh
62KHSKharsia  10:48+3810:50+392m--2507.573259mSECRNational Highway 200, Chhattisgarh
63ROBRobertson  10:57+4310:59+422m--2516.068239mSECRRaigarh, Chhattisgarh
64BEFBhupdeopur  11:07+4711:09+482m--2525.079243mSECRRaigarh, Chhattisgarh
65KDTRKirodimalnagar (5)O  11:16+5211:18+522m--2534.225240mSECRRaigarh, Chhattisgarh
66RIGRaigarh (3)  11:35+4811:40+515m--2541.497220mSECRRaigarh, Chhattisgarh
67KRLKotarlia  11:46+5511:48+562m--2551.273229mSECRRaigarh, Chhattisgarh
68JMGJamga  11:55+5911:57+1:162m--2559.765233mSECRJamga Station, Chhattisgarh
69DAODaghoraX  12:08+1:1812:10+1:182m--2571.634269mSECRRaigarh, Chhattisgarh
70HGRHimgir  12:23+1:1212:25+1:162m--2579.081275mSECRNational Highway 200, Chhattisgarh
71BPHBelpahar  12:35+1:2112:37+1:232m--2592.525235mSECRBelpahar, Odisha
72BRJNBrajrajnagarO  12:58+1:1313:00+1:132m--2601.46212mSECRBrajrajnagar, Odisha
73IBIbXO  13:28+5613:30+582m--2604.18207mSECRJharsuguda, Odisha
74JSGJharsuguda Junction (5)X  14:35+1514:55+2420m--2613.157236mSERJharsuguda, Odisha
75DTVDhutra  15:04+3415:05+421m--2621.747240mSERJharsuguda, Odisha
76PNPLPanpaliX  15:12-15:13-1m--2627.156258mSERJharsuguda, Odisha
77BEHBagdihi (3)O  15:20+4115:21+451m--2633.754254mSERState Highway 24 PH: 06640-286227, Odisha
78DIHDharuadihi  15:28+4715:29+501m--2640.064258mSERSH 24, Odisha
79BMBBamra (3)  15:38+4515:39+481m--2649.656259mSERBamra PH : 06642-229268, Odisha
80TGMTangarmundaX  15:48+5215:49+531m--2658.058264mSERSundargarh, Odisha
81GPHGarpos (3)O  15:57+5315:58+581m--2665.847278mSERSundargarh, Odisha
82SOGRSogra  16:04+1:0216:05+1:051m--2670.555293mSERState Highway 10, Odisha
83SXNSonakhan  16:12+1:0116:13+1:041m--2676.955249mSERSundargarh, Odisha
84GPRaj Gangpur (3)  16:21+1:0016:22+1:071m--2684.255237mSERRaj Ganpur, Odisha
85KXNKanshbahal  16:32+1:1516:33+1:171m--2693.453220mSERSundargarh, Odisha
86KLGKalunga  16:41+1:1916:42+1:251m--2700.550203mSERSundargarh, Odisha
87PPOPanposh (2)X  16:51+1:2816:52+1:301m--2708.08190mSERRourkela, Odisha
88ROURourkela Junction (5)X  17:40+2918:40+2760m42714.030198mSERRourkela, Odisha
89BNDMBondamunda (2)  18:53+1:1318:54+1:131m--2720.541213mSERRourkela, Odisha
90BZRBisra  19:05+5919:06+1:001m--2728.158224mSERSundargarh, Odisha
91BULBhalulata  19:13+1:0019:14+1:011m--2734.950239mSERRourkela, Jharkhand
92JRAJaraikelaX  19:23+1:0019:24+1:011m--2742.468215mSERJaraikela Station, Jharkhand
93MOUManoharpurX  19:34+1:0219:35+1:051m--2753.839228mSERManoharpur, Jharkhand
94PSTPosotia (4)X  19:52+1:0519:53+1:081m--2764.851279mSERPosotia Station, Jharkhand
95DRWNDerowan P. Halt  20:01-20:02-1m--2771.636275mSERDerowan, Jharkhand
96GOLGoilkera (2)  20:18+1:0820:19+1:101m--2781.351333mSERGoilkera, Jharkhand
97TUXTunia  20:27+1:0420:28+1:051m--2788.145297mSERTunia Station, Jharkhand
98SWRSonua  20:36+1:0420:37+1:131m--2794.169287mSERSonua, Jharkhand
99LPHLotapaharX  20:47+1:0720:48+1:171m--2805.526251mSERLotapahar Station, Jharkhand
100CKPChakradharpur (3)X  21:10+1:0321:50+4140m--2815.164235mSERChakradharpur (West Singhbhum), Jharkhand
101BRMBarabamboX  22:00+1:5022:01+1:501m--2825.756213mSERBarabambo Station, Jharkhand
102RKSNRajkharsawan Junction (3)  22:11+4322:12+441m--2835.150189mSERSaraikela Kharswan District, Jharkhand
103MMVMahali Marup (2)  22:21+5822:22+591m--2842.651183mSERMahali Marup Station, Jharkhand
104SINISini Junction (3)  22:31+5422:32+1:181m22850.348182mSERNational Highway 33, Jharkhand
105BRBSBirbans  22:41-22:42-1m--2857.654171mSERBirbans, Jharkhand
106GMHGamharia (3)X  22:52+1:0822:53+1:081m22866.640165mSERJamshedpur, Jharkhand
107ADTPAdityapur (3)  23:02+023:03+01m22872.75152mSERJamshedpur, Jharkhand
108TATATatanagar Junction (5)  00:05+2-43877.3-164mSER91-657-2423026, Jharkhand
Scroll to Top
Scroll to Bottom